sim
Sign-in with your pilot id or email,
or register
Callsign
Passwort

Schedule Details

Flight Number: RYR5797 (2)
Departure: Frankfurt Hahn Airport (EDFH) at 17:25
Arrival: Thessaloniki International Airport (LGTS) at 20:00
Route: Ryanair Passenger Schedule. Enter filed route here before submitting Pirep.

Weather Information
Getting current METAR information for EDFH 211220Z 28008KT 250V320 9999 FEW024 SCT040 09/05 Q1027
Getting current METAR information for LGTS 211220Z 34013KT 9999 FEW030 16/00 Q1022 NOSIG

Schedule Frequency

Route Map